Time;durP1;ratioP1;P1;durP2;ratioP2;P2;SDS_P1;SDS_P2;PMS_P1;PMS_P2;Temp;Humidity;BMP_temperature;BMP_pressure;BME280_temperature;BME280_humidity;BME280_pressure;Samples;Min_cycle;Max_cycle;Signal;HPM_P1;HPM_P2
2022/04/12 00:01:03;;;;;;;;;;;;;;;4.27;59.43;100211.47;4426959;32;19989;-93
2022/04/12 00:03:28;;;;;;;;;;;;;;;4.22;59.42;100209.72;4426258;32;20038;-94
2022/04/12 00:05:54;;;;;;;;;;;;;;;4.44;59.43;100214.03;4427394;32;20021;-96
2022/04/12 00:08:19;;;;;;;;;;;;;;;4.49;59.44;100206.31;4427499;32;20020;-95
2022/04/12 00:10:45;;;;;;;;;;;;;;;4.62;59.44;100208.88;4426712;32;20029;-95
2022/04/12 00:13:10;;;;;;;;;;;;;;;4.52;59.44;100207.19;4426640;32;20011;-95
2022/04/12 00:15:36;;;;;;;;;;;;;;;4.40;59.43;100207.16;4426387;32;19985;-94
2022/04/12 00:20:45;;;;;;;;;;;;;;;4.63;59.44;100207.16;4451034;32;20021;-95
2022/04/12 00:23:14;;;;;;;;;;;;;;;4.60;59.44;100204.59;4454638;32;20284;-95
2022/04/12 00:25:39;;;;;;;;;;;;;;;4.64;59.44;100198.56;4454082;32;20037;-94
2022/04/12 00:28:05;;;;;;;;;;;;;;;4.37;59.43;100196.87;4454491;32;20298;-96
2022/04/12 00:30:30;;;;;;;;;;;;;;;4.30;59.43;100198.59;4454251;32;20007;-93
2022/04/12 00:32:56;;;;;;;;;;;;;;;4.39;59.42;100191.72;4454738;32;20016;-95
2022/04/12 00:35:21;;;;;;;;;;;;;;;4.37;59.43;100190.84;4454614;32;20001;-94
2022/04/12 00:37:47;;;;;;;;;;;;;;;4.41;59.43;100187.41;4454108;32;20310;-94
2022/04/12 00:40:13;;;;;;;;;;;;;;;4.48;59.43;100187.41;4454285;32;20009;-95
2022/04/12 00:42:38;;;;;;;;;;;;;;;4.49;59.44;100191.69;4454022;32;20076;-93
2022/04/12 00:45:04;;;;;;;;;;;;;;;4.53;59.43;100187.44;4454590;32;19995;-94
2022/04/12 00:47:29;;;;;;;;;;;;;;;4.52;59.43;100185.72;4454139;32;19988;-94
2022/04/12 00:49:54;;;;;;;;;;;;;;;4.53;59.44;100183.13;4454278;32;20328;-94
2022/04/12 00:52:19;;;;;;;;;;;;;;;4.59;59.44;100180.53;4454062;32;19981;-95
2022/04/12 00:54:45;;;;;;;;;;;;;;;4.62;59.44;100180.53;4453784;32;20055;-95
2022/04/12 00:57:10;;;;;;;;;;;;;;;4.65;59.45;100181.38;4454341;32;19978;-95
2022/04/12 00:59:36;;;;;;;;;;;;;;;4.46;59.43;100181.38;4454036;32;20261;-94
2022/04/12 01:02:02;;;;;;;;;;;;;;;4.45;59.43;100184.81;4453816;32;22766;-95
2022/04/12 01:04:27;;;;;;;;;;;;;;;4.45;59.43;100186.53;4454064;32;19977;-95
2022/04/12 01:06:52;;;;;;;;;;;;;;;4.46;59.43;100189.13;4453505;32;20307;-93
2022/04/12 01:09:18;;;;;;;;;;;;;;;4.51;59.43;100182.28;4453356;32;20009;-93
2022/04/12 01:11:48;;;;;;;;;;;;;;;4.49;59.44;100183.97;4453613;32;20003;-92
2022/04/12 01:14:14;;;;;;;;;;;;;;;4.39;59.43;100182.25;4452475;32;19974;-94
2022/04/12 01:16:40;;;;;;;;;;;;;;;4.36;59.43;100189.13;4452996;32;20016;-93
2022/04/12 01:19:05;;;;;;;;;;;;;;;4.39;59.42;100182.25;4452768;32;19993;-94
2022/04/12 01:22:00;;;;;;;;;;;;;;;4.36;59.43;100186.56;4452671;32;20016;-93
2022/04/12 01:24:26;;;;;;;;;;;;;;;4.44;59.43;100180.53;4436817;32;20078;-93
2022/04/12 01:26:51;;;;;;;;;;;;;;;4.42;59.43;100177.09;4453215;32;19993;-93
2022/04/12 01:29:16;;;;;;;;;;;;;;;4.36;59.43;100178.84;4452912;32;22790;-94
2022/04/12 01:31:41;;;;;;;;;;;;;;;4.33;59.42;100182.28;4453337;32;20038;-94
2022/04/12 01:34:07;;;;;;;;;;;;;;;4.35;59.42;100174.53;4452824;32;20001;-94
2022/04/12 01:36:32;;;;;;;;;;;;;;;4.22;59.42;100176.22;4453592;32;20310;-93
2022/04/12 01:38:57;;;;;;;;;;;;;;;4.25;59.42;100174.50;4453512;32;20001;-94
2022/04/12 01:41:22;;;;;;;;;;;;;;;4.21;59.42;100174.53;4453543;32;19985;-93
2022/04/12 01:43:47;;;;;;;;;;;;;;;4.14;59.41;100175.38;4453212;32;19989;-94
2022/04/12 01:46:13;;;;;;;;;;;;;;;3.87;59.39;100174.50;4453950;32;20027;-94
2022/04/12 01:48:38;;;;;;;;;;;;;;;4.03;59.40;100174.53;4453758;32;19989;-94
2022/04/12 01:51:03;;;;;;;;;;;;;;;3.71;59.39;100177.88;4453770;32;20337;-93
2022/04/12 01:53:29;;;;;;;;;;;;;;;3.60;59.38;100183.00;4454382;32;19989;-92
2022/04/12 01:55:54;;;;;;;;;;;;;;;3.77;59.39;100183.03;4456160;32;20547;-93
2022/04/12 01:58:19;;;;;;;;;;;;;;;3.77;59.39;100182.19;4454811;32;19989;-94
2022/04/12 02:00:44;;;;;;;;;;;;;;;3.69;59.39;100184.75;4453687;32;20013;-94
2022/04/12 02:03:10;;;;;;;;;;;;;;;3.60;59.38;100180.44;4452915;32;20035;-94
2022/04/12 02:05:39;;;;;;;;;;;;;;;3.46;59.38;100183.81;4455004;32;19988;-96
2022/04/12 02:08:05;;;;;;;;;;;;;;;3.60;59.38;100183.00;4455560;32;20005;-95
2022/04/12 02:10:31;;;;;;;;;;;;;;;3.61;59.38;100176.16;4456095;32;19993;-96
2022/04/12 02:12:57;;;;;;;;;;;;;;;3.49;59.37;100181.25;4456640;32;19985;-96
2022/04/12 02:15:22;;;;;;;;;;;;;;;3.48;59.38;100187.25;4458817;32;20011;-96
2022/04/12 02:17:48;;;;;;;;;;;;;;;3.43;59.37;100187.22;4456409;32;20012;-96
2022/04/12 02:20:13;;;;;;;;;;;;;;;3.30;59.36;100188.03;4455725;32;20098;-94
2022/04/12 02:22:38;;;;;;;;;;;;;;;3.47;59.38;100181.25;4442492;32;19981;-96
2022/04/12 02:25:04;;;;;;;;;;;;;;;3.35;59.37;100181.22;4455687;32;20010;-96
2022/04/12 02:27:29;;;;;;;;;;;;;;;3.36;59.36;100182.94;4456230;32;19990;-96
2022/04/12 02:29:54;;;;;;;;;;;;;;;3.30;59.36;100177.72;4455571;32;20029;-93
2022/04/12 02:32:20;;;;;;;;;;;;;;;3.28;59.36;100180.28;4452873;32;19989;-93
2022/04/12 02:34:45;;;;;;;;;;;;;;;3.42;59.37;100175.22;4452089;32;20313;-93
2022/04/12 02:37:10;;;;;;;;;;;;;;;3.35;59.36;100176.91;4452294;32;22105;-93
2022/04/12 02:39:35;;;;;;;;;;;;;;;3.21;59.36;100182.84;4452332;32;20021;-93
2022/04/12 02:42:01;;;;;;;;;;;;;;;3.04;59.35;100190.47;4452689;32;19985;-93
2022/04/12 02:44:26;;;;;;;;;;;;;;;3.02;59.36;100193.03;4452215;32;20016;-93
2022/04/12 02:46:51;;;;;;;;;;;;;;;3.06;59.35;100186.19;4452490;32;19993;-92
2022/04/12 02:49:16;;;;;;;;;;;;;;;3.04;59.35;100187.91;4452265;32;20018;-96
2022/04/12 02:51:42;;;;;;;;;;;;;;;2.92;59.34;100195.56;4453249;32;20023;-94
2022/04/12 02:54:07;;;;;;;;;;;;;;;2.99;59.34;100192.16;4452858;32;19992;-94
2022/04/12 02:56:32;;;;;;;;;;;;;;;2.99;59.34;100192.16;4452617;32;20337;-93
2022/04/12 02:58:57;;;;;;;;;;;;;;;2.94;59.34;100196.44;4453022;32;20235;-93
2022/04/12 03:01:23;;;;;;;;;;;;;;;2.93;59.34;100198.12;4452577;32;20001;-93
2022/04/12 03:03:48;;;;;;;;;;;;;;;3.03;59.36;100193.91;4453073;32;19977;-94
2022/04/12 03:06:13;;;;;;;;;;;;;;;2.84;59.34;100204.91;4452989;32;19985;-94
2022/04/12 03:08:38;;;;;;;;;;;;;;;3.00;59.35;100210.16;4452088;32;29163;-95
2022/04/12 03:11:04;;;;;;;;;;;;;;;2.94;59.35;100205.00;4452636;32;19997;-94
2022/04/12 03:13:29;;;;;;;;;;;;;;;2.86;59.34;100195.53;4452830;32;20008;-95
2022/04/12 03:15:55;;;;;;;;;;;;;;;2.86;59.33;100195.53;4452823;32;20029;-93
2022/04/12 03:18:40;;;;;;;;;;;;;;;2.97;59.34;100202.44;4462583;32;19997;-96
2022/04/12 03:21:14;;;;;;;;;;;;;;;3.13;59.35;100194.81;4452754;32;19954;-96
2022/04/12 03:23:39;;;;;;;;;;;;;;;3.02;59.34;100194.75;4459768;32;20037;-93
2022/04/12 03:26:04;;;;;;;;;;;;;;;2.98;59.34;100191.31;4452150;32;20293;-93
2022/04/12 03:28:30;;;;;;;;;;;;;;;3.06;59.35;100196.47;4452223;32;19986;-92
2022/04/12 03:30:55;;;;;;;;;;;;;;;3.14;59.35;100192.25;4451810;32;20345;-91
2022/04/12 03:33:20;;;;;;;;;;;;;;;3.15;59.35;100193.97;4452417;32;20018;-93
2022/04/12 03:35:45;;;;;;;;;;;;;;;2.91;59.34;100199.84;4452242;32;20004;-92
2022/04/12 03:38:13;;;;;;;;;;;;;;;2.92;59.34;100200.69;4452455;32;19985;-92
2022/04/12 03:40:38;;;;;;;;;;;;;;;2.98;59.35;100205.88;4453090;32;20042;-95
2022/04/12 03:43:04;;;;;;;;;;;;;;;2.83;59.34;100205.75;4453667;32;19990;-95
2022/04/12 03:45:29;;;;;;;;;;;;;;;2.84;59.34;100204.91;4456571;32;19985;-96
2022/04/12 03:47:55;;;;;;;;;;;;;;;2.89;59.34;100211.81;4459550;32;20017;-96
2022/04/12 03:50:22;;;;;;;;;;;;;;;2.87;59.33;100213.53;4457648;32;20013;-94
2022/04/12 03:52:51;;;;;;;;;;;;;;;2.73;59.33;100213.44;4461150;32;19950;-96
2022/04/12 03:55:30;;;;;;;;;;;;;;;2.69;59.33;100216.84;4444853;32;20045;-92
2022/04/12 03:57:55;;;;;;;;;;;;;;;2.66;59.32;100214.25;4440427;32;19965;-95
2022/04/12 04:00:20;;;;;;;;;;;;;;;2.70;59.33;100215.97;4451932;32;20024;-92
2022/04/12 04:02:46;;;;;;;;;;;;;;;2.63;59.32;100216.78;4451439;32;19982;-93
2022/04/12 04:05:11;;;;;;;;;;;;;;;2.67;59.33;100215.97;4451750;32;20350;-95
2022/04/12 04:07:36;;;;;;;;;;;;;;;2.68;59.33;100217.69;4451725;32;29080;-94
2022/04/12 04:10:02;;;;;;;;;;;;;;;2.77;59.33;100220.31;4452096;32;20113;-91
2022/04/12 04:12:28;;;;;;;;;;;;;;;2.65;59.31;100225.38;4453129;32;20016;-96
2022/04/12 04:14:53;;;;;;;;;;;;;;;2.72;59.33;100216.00;4452898;32;19993;-95
2022/04/12 04:17:18;;;;;;;;;;;;;;;2.67;59.33;100218.53;4453026;32;19989;-96
2022/04/12 04:19:46;;;;;;;;;;;;;;;2.73;59.33;100210.84;4453665;32;19997;-95
2022/04/12 04:22:12;;;;;;;;;;;;;;;2.85;59.33;100220.37;4453239;32;19970;-95
2022/04/12 04:24:38;;;;;;;;;;;;;;;2.87;59.33;100213.53;4455381;32;20045;-96
2022/04/12 04:27:06;;;;;;;;;;;;;;;2.76;59.33;100221.16;4456981;32;19962;-96
2022/04/12 04:29:33;;;;;;;;;;;;;;;2.75;59.33;100219.44;4458511;32;19949;-96
2022/04/12 04:32:01;;;;;;;;;;;;;;;2.85;59.33;100217.81;4454571;32;20041;-96
2022/04/12 04:34:26;;;;;;;;;;;;;;;2.86;59.33;100218.66;4441178;32;20009;-96
2022/04/12 04:36:53;;;;;;;;;;;;;;;2.92;59.34;100217.00;4455110;32;20012;-96
2022/04/12 04:39:20;;;;;;;;;;;;;;;2.91;59.34;100212.69;4458592;32;20709;-96
2022/04/12 04:41:47;;;;;;;;;;;;;;;3.06;59.35;100219.63;4457148;32;20015;-96
2022/04/12 04:44:13;;;;;;;;;;;;;;;3.06;59.35;100219.63;4456436;32;20001;-96
2022/04/12 04:46:42;;;;;;;;;;;;;;;3.12;59.35;100226.53;4458521;32;20069;-96
2022/04/12 04:49:07;;;;;;;;;;;;;;;3.24;59.36;100227.44;4453488;32;20019;-94
2022/04/12 04:51:34;;;;;;;;;;;;;;;3.36;59.36;100229.25;4452297;32;19985;-95
2022/04/12 04:54:00;;;;;;;;;;;;;;;3.49;59.37;100227.56;4452084;32;20614;-96
2022/04/12 04:56:27;;;;;;;;;;;;;;;3.58;59.38;100233.63;4452351;32;20033;-95
2022/04/12 04:58:53;;;;;;;;;;;;;;;3.83;59.40;100236.28;4452862;32;19978;-96
2022/04/12 05:01:20;;;;;;;;;;;;;;;3.98;59.41;100237.16;4453881;32;20028;-96
2022/04/12 05:03:45;;;;;;;;;;;;;;;3.96;59.40;100233.72;4454065;32;20021;-95
2022/04/12 05:06:10;;;;;;;;;;;;;;;4.07;59.41;100236.34;4453289;32;20007;-96
2022/04/12 05:08:36;;;;;;;;;;;;;;;4.29;59.42;100242.41;4455925;32;20000;-96
2022/04/12 05:11:01;;;;;;;;;;;;;;;4.47;59.43;100239.81;4456165;32;19973;-96
2022/04/12 05:13:26;;;;;;;;;;;;;;;4.31;59.42;100236.38;4455125;32;20052;-95
2022/04/12 05:15:54;;;;;;;;;;;;;;;4.40;59.42;100239.81;4455870;32;20060;-96
2022/04/12 05:18:19;;;;;;;;;;;;;;;4.48;59.43;100241.53;4455520;32;19953;-95
2022/04/12 05:20:44;;;;;;;;;;;;;;;4.75;59.45;100242.41;4454588;32;20024;-95
2022/04/12 05:23:10;;;;;;;;;;;;;;;4.77;59.44;100243.28;4455076;32;20313;-95
2022/04/12 05:25:36;;;;;;;;;;;;;;;4.88;59.46;100238.94;4455757;32;20029;-95
2022/04/12 05:28:01;;;;;;;;;;;;;;;5.17;59.47;100247.50;4441387;32;20020;-94
2022/04/12 05:30:27;;;;;;;;;;;;;;;5.31;59.48;100244.91;4455389;32;19978;-94
2022/04/12 05:32:53;;;;;;;;;;;;;;;5.52;59.49;100244.84;4454931;32;19997;-96
2022/04/12 05:35:18;;;;;;;;;;;;;;;5.62;59.50;100244.78;4455345;32;20302;-96
2022/04/12 05:37:47;;;;;;;;;;;;;;;5.84;59.52;100247.25;4454591;32;19993;-96
2022/04/12 05:40:13;;;;;;;;;;;;;;;6.20;59.52;100252.28;4455380;32;20097;-95
2022/04/12 05:42:38;;;;;;;;;;;;;;;6.24;59.53;100252.25;4455092;32;19989;-96
2022/04/12 05:45:04;;;;;;;;;;;;;;;6.33;59.53;100251.31;4454713;32;20617;-95
2022/04/12 05:47:38;;;;;;;;;;;;;;;6.82;59.56;100249.22;4454806;32;19977;-96
2022/04/12 05:50:03;;;;;;;;;;;;;;;7.01;59.57;100243.00;4454688;32;20631;-96
2022/04/12 05:52:29;;;;;;;;;;;;;;;7.18;59.59;100249.75;4454437;32;20024;-95
2022/04/12 05:54:54;;;;;;;;;;;;;;;7.52;59.60;100247.63;4453119;32;20031;-96
2022/04/12 05:57:19;;;;;;;;;;;;;;;7.65;59.61;100249.22;4454744;32;19985;-96
2022/04/12 05:59:45;;;;;;;;;;;;;;;7.58;59.61;100258.81;4454897;32;20275;-96
2022/04/12 06:02:10;;;;;;;;;;;;;;;7.77;59.62;100248.19;4454749;32;20025;-96
2022/04/12 06:04:36;;;;;;;;;;;;;;;7.86;59.63;100243.78;4454727;32;20004;-96
2022/04/12 06:07:01;;;;;;;;;;;;;;;7.94;59.63;100246.25;4454550;32;19973;-96
2022/04/12 06:09:26;;;;;;;;;;;;;;;8.16;59.64;100249.41;4454750;32;19986;-96
2022/04/12 06:11:52;;;;;;;;;;;;;;;8.32;59.64;100251.78;4454745;32;20020;-96
2022/04/12 06:14:17;;;;;;;;;;;;;;;8.32;59.65;100250.91;4455246;32;20262;-96
2022/04/12 06:17:09;;;;;;;;;;;;;;;8.51;59.66;100252.34;4455391;32;19981;-96
2022/04/12 06:22:18;;;;;;;;;;;;;;;8.86;59.67;100256.12;4453702;32;20021;-95
2022/04/12 06:24:47;;;;;;;;;;;;;;;9.07;59.69;100257.50;4456649;32;19997;-96
2022/04/12 06:27:12;;;;;;;;;;;;;;;9.23;59.70;100258.94;4455699;32;19988;-96
2022/04/12 06:29:40;;;;;;;;;;;;;;;9.50;59.72;100258.44;4455325;32;20029;-96
2022/04/12 06:32:08;;;;;;;;;;;;;;;9.68;59.73;100253.72;4456157;32;19970;-96
2022/04/12 06:34:34;;;;;;;;;;;;;;;9.71;59.72;100253.69;4454377;32;19972;-96
2022/04/12 06:37:00;;;;;;;;;;;;;;;9.99;59.74;100249.63;4441667;32;20250;-95
2022/04/12 06:39:25;;;;;;;;;;;;;;;10.22;59.75;100249.16;4452934;32;20025;-95
2022/04/12 06:41:50;;;;;;;;;;;;;;;10.46;59.76;100250.31;4452665;32;20029;-94
2022/04/12 06:44:16;;;;;;;;;;;;;;;10.61;59.77;100255.16;4452636;32;20330;-94
2022/04/12 06:47:42;;;;;;;;;;;;;;;10.71;59.78;100256.66;4452487;32;20016;-95
2022/04/12 06:49:49;;;;;;;;;;;;;;;11.02;59.80;100253.28;4439482;32;19963;-94
2022/04/12 06:52:15;;;;;;;;;;;;;;;11.16;59.81;100247.72;4453326;32;19989;-95
2022/04/12 06:54:40;;;;;;;;;;;;;;;11.42;59.82;100247.88;4452487;32;20016;-94
2022/04/12 06:57:06;;;;;;;;;;;;;;;11.44;59.82;100245.22;4452403;32;20029;-94
2022/04/12 06:59:32;;;;;;;;;;;;;;;11.40;59.82;100243.59;4452566;32;20345;-93
2022/04/12 07:01:57;;;;;;;;;;;;;;;11.77;59.84;100240.78;4452031;32;20009;-95
2022/04/12 07:04:22;;;;;;;;;;;;;;;11.95;59.85;100241.13;4452264;32;20349;-94
2022/04/12 07:06:47;;;;;;;;;;;;;;;12.07;59.86;100241.69;4452201;32;19993;-94
2022/04/12 07:09:20;;;;;;;;;;;;;;;12.26;59.86;100242.81;4452160;32;19984;-96
2022/04/12 07:11:46;;;;;;;;;;;;;;;12.31;59.88;100235.72;4451556;32;20038;-96
2022/04/12 07:14:11;;;;;;;;;;;;;;;12.36;59.88;100238.19;4452087;32;20315;-96
2022/04/12 07:22:59;;;;;;;;;;;;;;;12.58;59.89;100240.06;4423202;32;20055;-95
2022/04/12 07:25:27;;;;;;;;;;;;;;;12.62;59.89;100247.78;4410031;32;20009;-94
2022/04/12 07:27:52;;;;;;;;;;;;;;;12.51;59.89;100248.13;4413276;32;20742;-96
2022/04/12 07:30:26;;;;;;;;;;;;;;;12.59;59.89;100249.59;4450883;32;19993;-96
2022/04/12 07:32:54;;;;;;;;;;;;;;;12.69;59.89;100246.69;4451647;32;20001;-94
2022/04/12 07:35:19;;;;;;;;;;;;;;;12.77;59.89;100245.50;4452254;32;20412;-94
2022/04/12 07:37:44;;;;;;;;;;;;;;;12.81;59.90;100257.59;4452102;32;20059;-94
2022/04/12 07:40:10;;;;;;;;;;;;;;;12.88;59.91;100253.00;4452179;32;20019;-94
2022/04/12 07:42:35;;;;;;;;;;;;;;;12.88;59.91;100253.84;4452172;32;20015;-94
2022/04/12 07:45:01;;;;;;;;;;;;;;;13.10;59.91;100248.75;4451991;32;19981;-94
2022/04/12 07:47:28;;;;;;;;;;;;;;;13.16;59.91;100260.75;4452309;32;20341;-94
2022/04/12 07:50:06;;;;;;;;;;;;;;;13.34;59.93;100252.31;4451765;32;19991;-94
2022/04/12 07:52:31;;;;;;;;;;;;;;;13.35;59.93;100251.41;4451067;32;20326;-95
2022/04/12 07:54:56;;;;;;;;;;;;;;;13.44;59.93;100258.06;4452006;32;19986;-94
2022/04/12 07:57:22;;;;;;;;;;;;;;;13.43;59.94;100256.34;4451982;32;19994;-95
2022/04/12 07:59:47;;;;;;;;;;;;;;;13.36;59.94;100260.09;4451734;32;19984;-94
2022/04/12 08:02:15;;;;;;;;;;;;;;;13.52;59.94;100269.97;4451529;32;20023;-95
2022/04/12 08:04:42;;;;;;;;;;;;;;;13.44;59.94;100263.28;4451624;32;19996;-95
2022/04/12 08:07:10;;;;;;;;;;;;;;;13.70;59.94;100262.34;4451558;32;20868;-95
2022/04/12 08:09:35;;;;;;;;;;;;;;;13.70;59.95;100262.34;4451485;32;19953;-95
2022/04/12 08:12:09;;;;;;;;;;;;;;;13.57;59.95;100264.56;4451445;32;19996;-95
2022/04/12 08:14:36;;;;;;;;;;;;;;;13.73;59.95;100260.50;4450966;32;20012;-94
2022/04/12 08:17:04;;;;;;;;;;;;;;;13.90;59.97;100277.31;4451437;32;19969;-94
2022/04/12 08:19:32;;;;;;;;;;;;;;;14.00;59.96;100268.22;4451619;32;19973;-94
2022/04/12 08:22:01;;;;;;;;;;;;;;;14.04;59.97;100260.19;4453822;32;20005;-94
2022/04/12 08:24:36;;;;;;;;;;;;;;;;;;;;;
2022/04/12 08:27:02;;;;;;;;;;;;;;;14.08;59.97;100274.87;4449597;32;37327;-94
2022/04/12 08:29:28;;;;;;;;;;;;;;;14.29;59.98;100277.59;4450656;32;19996;-94
2022/04/12 08:31:53;;;;;;;;;;;;;;;14.27;59.98;100275.03;4451423;32;20239;-92
2022/04/12 08:34:18;;;;;;;;;;;;;;;14.49;60.00;100268.97;4450889;32;20004;-94
2022/04/12 08:36:49;;;;;;;;;;;;;;;14.64;60.00;100274.44;4450936;32;19990;-95
2022/04/12 08:39:17;;;;;;;;;;;;;;;14.77;60.00;100266.94;4450897;32;19982;-94
2022/04/12 08:41:47;;;;;;;;;;;;;;;14.81;60.02;100267.66;4451440;32;20607;-94
2022/04/12 08:44:13;;;;;;;;;;;;;;;15.02;60.03;100266.78;4453087;32;20012;-94
2022/04/12 08:46:41;;;;;;;;;;;;;;;15.30;60.04;100275.19;4453148;32;19997;-94
2022/04/12 08:49:07;;;;;;;;;;;;;;;15.37;60.04;100267.87;4452994;32;19978;-95
2022/04/12 08:51:34;;;;;;;;;;;;;;;15.47;60.04;100270.97;4453208;32;20015;-94
2022/04/12 08:54:08;;;;;;;;;;;;;;;15.48;60.05;100272.69;4452350;32;20005;-95
2022/04/12 08:56:33;;;;;;;;;;;;;;;15.59;60.05;100268.69;4452150;32;19982;-94
2022/04/12 08:58:59;;;;;;;;;;;;;;;15.62;60.06;100268.56;4453377;32;19973;-94
2022/04/12 09:01:26;;;;;;;;;;;;;;;15.83;60.06;100266.72;4453090;32;20016;-94
2022/04/12 09:03:52;;;;;;;;;;;;;;;15.62;60.06;100265.09;4452648;32;20013;-94
2022/04/12 09:06:17;;;;;;;;;;;;;;;15.75;60.06;100268.88;4452841;32;20000;-92
2022/04/12 09:08:44;;;;;;;;;;;;;;;15.80;60.07;100255.53;4453388;32;20302;-95
2022/04/12 09:11:10;;;;;;;;;;;;;;;15.72;60.06;100255.03;4452639;32;19986;-94
2022/04/12 09:13:36;;;;;;;;;;;;;;;15.87;60.08;100247.31;4453003;32;20341;-96
2022/04/12 09:16:03;;;;;;;;;;;;;;;16.16;60.09;100243.34;4452827;32;19981;-94
2022/04/12 09:18:49;;;;;;;;;;;;;;;16.31;60.09;100248.78;4452670;32;19977;-95
2022/04/12 09:21:27;;;;;;;;;;;;;;;16.52;60.10;100234.59;4452003;32;20491;-95
2022/04/12 09:24:15;;;;;;;;;;;;;;;16.31;60.10;100241.75;4452656;32;19993;-94
2022/04/12 09:26:41;;;;;;;;;;;;;;;16.63;60.11;100239.34;4435869;32;19981;-95
2022/04/12 09:32:15;;;;;;;;;;;;;;;;;;;;;
2022/04/12 09:34:43;;;;;;;;;;;;;;;16.96;60.13;100229.81;4450722;32;36546;-95
2022/04/12 09:37:18;;;;;;;;;;;;;;;17.17;60.15;100223.44;4452745;32;20046;-96
2022/04/12 09:40:15;;;;;;;;;;;;;;;16.96;60.13;100234.22;4452864;32;19977;-96
2022/04/12 09:49:23;;;;;;;;;;;;;;;17.71;60.17;100218.00;4408944;32;19986;-95
2022/04/12 10:52:45;;;;;;;;;;;;;;;19.89;60.29;100148.00;4796205;26;19989;-94
2022/04/12 10:55:28;;;;;;;;;;;;;;;19.77;60.29;100142.63;4443461;32;20305;-96
2022/04/12 10:58:27;;;;;;;;;;;;;;;;;;;;;
2022/04/12 11:00:55;;;;;;;;;;;;;;;19.91;60.30;100140.81;4428667;32;35829;-96
2022/04/12 11:03:48;;;;;;;;;;;;;;;19.89;60.29;100141.87;4429423;32;20032;-96
2022/04/12 11:15:56;;;;;;;;;;;;;;;19.95;60.30;100124.75;4552954;27;20405;-95
2022/04/12 11:27:46;;;;;;;;;;;;;;;20.10;60.31;100121.94;4367666;32;20636;-95
2022/04/12 11:33:34;;;;;;;;;;;;;;;20.33;60.32;100114.28;4363473;32;20636;-95
2022/04/12 11:36:05;;;;;;;;;;;;;;;20.32;60.31;100109.97;4412376;32;19985;-94
2022/04/12 11:38:44;;;;;;;;;;;;;;;20.27;60.31;100107.63;4411326;32;19990;-95
2022/04/12 11:41:30;;;;;;;;;;;;;;;20.26;60.32;100105.94;4398023;32;20861;-95
2022/04/12 11:44:10;;;;;;;;;;;;;;;20.48;60.33;100103.59;4422825;32;19982;-94
2022/04/12 11:46:56;;;;;;;;;;;;;;;20.34;60.32;100108.06;4382120;32;19995;-95
2022/04/12 11:49:25;;;;;;;;;;;;;;;20.30;60.32;100109.22;4380368;32;19994;-94
2022/04/12 11:51:54;;;;;;;;;;;;;;;20.34;60.32;100108.91;4379338;32;19982;-95
2022/04/12 11:54:31;;;;;;;;;;;;;;;20.10;60.31;100103.44;4379351;32;20017;-94
2022/04/12 12:00:32;;;;;;;;;;;;;;;;;;;;;
2022/04/12 12:06:06;;;;;;;;;;;;;;;19.37;60.26;100109.94;4390485;32;20373;-95
2022/04/12 12:09:02;;;;;;;;;;;;;;;;;;;;;
2022/04/12 12:11:48;;;;;;;;;;;;;;;;;;;;;
2022/04/12 12:24:27;;;;;;;;;;;;;;;;;;;;;
2022/04/12 12:30:32;;;;;;;;;;;;;;;;;;;;;
2022/04/12 12:33:23;;;;;;;;;;;;;;;20.23;60.32;100085.00;4345499;32;36074;-96
2022/04/12 12:39:29;;;;;;;;;;;;;;;;;;;;;
2022/04/12 12:42:30;;;;;;;;;;;;;;;20.67;60.33;100076.75;4303934;33;36058;-95
2022/04/12 12:44:55;;;;;;;;;;;;;;;20.71;60.34;100074.72;4304137;33;20123;-95
2022/04/12 12:47:31;;;;;;;;;;;;;;;20.71;60.34;100062.34;4301423;33;20019;-94
2022/04/12 12:50:05;;;;;;;;;;;;;;;20.44;60.32;100069.53;4362793;32;20013;-94
2022/04/12 12:55:34;;;;;;;;;;;;;;;19.97;60.30;100067.37;4391434;32;20631;-94
2022/04/12 12:58:38;;;;;;;;;;;;;;;19.64;60.29;100068.63;4396841;32;20014;-94
2022/04/12 13:25:55;;;;;;;;;;;;;;;20.38;60.33;100043.47;4978716;26;19961;-95
2022/04/12 13:28:26;;;;;;;;;;;;;;;20.34;60.32;100039.31;4429274;32;19981;-96
2022/04/12 13:30:53;;;;;;;;;;;;;;;20.07;60.31;100036.75;4429937;32;19976;-95
2022/04/12 13:33:31;;;;;;;;;;;;;;;;;;;;;
2022/04/12 13:36:14;;;;;;;;;;;;;;;20.10;60.31;100036.53;4442537;32;35825;-95
2022/04/12 13:38:40;;;;;;;;;;;;;;;20.21;60.31;100034.03;4429617;32;19961;-95
2022/04/12 13:41:05;;;;;;;;;;;;;;;20.16;60.31;100031.69;4429220;32;20274;-95
2022/04/12 13:43:44;;;;;;;;;;;;;;;;;;;;;
2022/04/12 13:46:47;;;;;;;;;;;;;;;;;;;;;
2022/04/12 13:49:37;;;;;;;;;;;;;;;20.46;60.34;100030.59;4456784;32;34865;-95
2022/04/12 13:52:33;;;;;;;;;;;;;;;;;;;;;
2022/04/12 13:54:59;;;;;;;;;;;;;;;20.52;60.33;100022.25;4442732;32;35102;-95
2022/04/12 14:01:03;;;;;;;;;;;;;;;;;;;;;
2022/04/12 14:03:41;;;;;;;;;;;;;;;20.48;60.34;100020.75;4451025;32;35063;-95
2022/04/12 14:06:10;;;;;;;;;;;;;;;20.41;60.33;100020.34;4429787;32;19953;-94
2022/04/12 14:08:41;;;;;;;;;;;;;;;20.34;60.32;100021.66;4429551;32;20045;-95
2022/04/12 14:11:41;;;;;;;;;;;;;;;20.42;60.33;100023.84;4429362;32;20003;-95
2022/04/12 14:14:07;;;;;;;;;;;;;;;20.37;60.32;100018.00;4455628;32;19981;-94
2022/04/12 14:16:33;;;;;;;;;;;;;;;20.20;60.31;100016.47;4429597;32;19953;-95
2022/04/12 14:19:00;;;;;;;;;;;;;;;20.23;60.32;100016.28;4428871;32;20239;-94
2022/04/12 14:21:26;;;;;;;;;;;;;;;20.34;60.32;100013.72;4429253;32;19965;-94
2022/04/12 14:23:53;;;;;;;;;;;;;;;20.18;60.32;100008.66;4429588;32;20047;-95
2022/04/12 14:26:26;;;;;;;;;;;;;;;20.06;60.30;100004.19;4429434;32;20027;-95
2022/04/12 14:28:54;;;;;;;;;;;;;;;20.03;60.31;100009.69;4430164;32;19985;-94
2022/04/12 14:31:30;;;;;;;;;;;;;;;19.98;60.30;100016.22;4429437;32;19997;-95
2022/04/12 14:34:01;;;;;;;;;;;;;;;20.00;60.31;100007.25;4429143;32;19972;-96
2022/04/12 14:36:29;;;;;;;;;;;;;;;19.86;60.31;100013.44;4429467;32;20524;-94
2022/04/12 14:38:55;;;;;;;;;;;;;;;19.82;60.30;100011.94;4428910;32;20337;-94
2022/04/12 14:41:25;;;;;;;;;;;;;;;19.68;60.28;100021.75;4428520;32;20004;-95
2022/04/12 14:43:50;;;;;;;;;;;;;;;19.75;60.29;100015.09;4429159;32;20033;-94
2022/04/12 14:46:16;;;;;;;;;;;;;;;19.85;60.30;100014.38;4428989;32;20032;-94
2022/04/12 14:51:40;;;;;;;;;;;;;;;19.76;60.29;100016.78;4433507;32;19963;-94
2022/04/12 14:54:07;;;;;;;;;;;;;;;19.79;60.30;100012.16;4442046;32;19981;-95
2022/04/12 14:56:32;;;;;;;;;;;;;;;19.79;60.30;100012.16;4428739;32;20722;-95
2022/04/12 14:59:33;;;;;;;;;;;;;;;19.57;60.28;100009.22;4429115;32;20040;-95
2022/04/12 15:02:00;;;;;;;;;;;;;;;19.78;60.31;100010.47;4433315;32;19985;-94
2022/04/12 15:12:56;;;;;;;;;;;;;;;19.51;60.28;100018.34;4364486;27;20665;-95
2022/04/12 15:15:24;;;;;;;;;;;;;;;19.57;60.29;100020.63;4351001;32;19990;-94
2022/04/12 15:21:49;;;;;;;;;;;;;;;19.57;60.28;100022.41;4303352;33;20071;-94
2022/04/12 15:24:36;;;;;;;;;;;;;;;;;;;;;
2022/04/12 15:27:04;;;;;;;;;;;;;;;19.37;60.27;100012.25;4292369;33;36817;-94
2022/04/12 15:29:55;;;;;;;;;;;;;;;19.38;60.28;100011.31;4291159;33;19981;-94
2022/04/12 15:32:22;;;;;;;;;;;;;;;19.31;60.27;100006.44;4292393;33;19992;-94
2022/04/12 15:34:47;;;;;;;;;;;;;;;19.11;60.26;100012.12;4284416;32;20011;-94
2022/04/12 15:37:15;;;;;;;;;;;;;;;19.23;60.27;100008.72;4339219;32;19983;-93
2022/04/12 15:39:45;;;;;;;;;;;;;;;19.03;60.26;100009.13;4350998;32;20078;-93
2022/04/12 15:42:10;;;;;;;;;;;;;;;19.00;60.26;100004.91;4350903;32;20002;-93
2022/04/12 15:44:41;;;;;;;;;;;;;;;18.94;60.25;100007.09;4338391;32;20016;-94
2022/04/12 15:47:09;;;;;;;;;;;;;;;18.96;60.25;100011.31;4350818;32;20062;-94
2022/04/12 15:49:37;;;;;;;;;;;;;;;18.81;60.24;100014.88;4338483;32;19979;-94
2022/04/12 15:52:05;;;;;;;;;;;;;;;18.77;60.25;100012.53;4349462;32;20003;-94
2022/04/12 15:57:33;;;;;;;;;;;;;;;18.89;60.24;100015.25;4363812;32;20025;-94
2022/04/12 16:00:01;;;;;;;;;;;;;;;18.72;60.24;100017.25;4339021;32;19990;-94
2022/04/12 16:02:34;;;;;;;;;;;;;;;18.94;60.25;100022.91;4351090;32;20723;-94
2022/04/12 16:04:59;;;;;;;;;;;;;;;18.70;60.24;100020.84;4338580;32;20167;-94
2022/04/12 16:07:25;;;;;;;;;;;;;;;18.62;60.24;100022.19;4337821;32;19984;-94